Time;durP1;ratioP1;P1;durP2;ratioP2;P2;SDS_P1;SDS_P2;PMS_P1;PMS_P2;Temp;Humidity;BMP_temperature;BMP_pressure;BME280_temperature;BME280_humidity;BME280_pressure;Samples;Min_cycle;Max_cycle;Signal;HPM_P1;HPM_P2
2021/07/02 00:02:25;;;;;;;3.07;2.83;;;14.60;99.90;;;;;;5036684;28;20197;-74
2021/07/02 00:04:51;;;;;;;3.10;2.60;;;14.70;99.90;;;;;;5036425;28;20506;-76
2021/07/02 00:07:19;;;;;;;3.27;3.07;;;14.70;99.90;;;;;;5054575;28;20671;-75
2021/07/02 00:09:45;;;;;;;2.70;2.27;;;14.60;99.90;;;;;;5056414;28;20207;-75
2021/07/02 00:12:12;;;;;;;3.33;2.63;;;14.60;99.90;;;;;;5056286;28;20479;-75
2021/07/02 00:14:37;;;;;;;3.30;3.00;;;14.60;99.90;;;;;;5056215;28;20185;-75
2021/07/02 00:17:03;;;;;;;2.80;2.50;;;14.60;99.90;;;;;;5055903;28;21043;-75
2021/07/02 00:19:31;;;;;;;4.10;3.40;;;14.60;99.90;;;;;;5055460;28;20243;-76
2021/07/02 00:21:57;;;;;;;5.80;2.57;;;14.50;99.90;;;;;;5037919;28;20562;-75
2021/07/02 00:24:23;;;;;;;3.87;3.17;;;14.50;99.90;;;;;;5038314;28;20428;-76
2021/07/02 00:26:48;;;;;;;4.43;3.10;;;14.50;99.90;;;;;;5056078;28;20168;-75
2021/07/02 00:29:14;;;;;;;3.07;2.70;;;14.50;99.90;;;;;;5055439;28;20192;-75
2021/07/02 00:31:39;;;;;;;3.10;2.60;;;14.50;99.90;;;;;;5056036;28;20670;-75
2021/07/02 00:34:05;;;;;;;4.00;2.23;;;14.50;99.90;;;;;;5055961;28;20181;-75
2021/07/02 00:36:31;;;;;;;3.30;2.10;;;14.50;99.90;;;;;;5055498;28;20287;-76
2021/07/02 00:38:56;;;;;;;3.47;2.43;;;14.50;99.90;;;;;;5055352;28;20208;-76
2021/07/02 00:41:22;;;;;;;3.20;2.30;;;14.50;99.90;;;;;;5056103;28;20159;-75
2021/07/02 00:43:55;;;;;;;2.83;2.57;;;14.50;99.90;;;;;;5054905;28;20169;-75
2021/07/02 00:46:22;;;;;;;2.93;2.50;;;14.40;99.90;;;;;;5055719;28;20168;-75
2021/07/02 00:48:48;;;;;;;3.03;2.73;;;14.40;99.90;;;;;;5055324;28;20416;-75
2021/07/02 00:51:14;;;;;;;3.30;3.00;;;14.40;99.90;;;;;;5038318;28;20922;-75
2021/07/02 00:53:41;;;;;;;4.10;3.33;;;14.40;99.90;;;;;;5035827;28;20461;-75
2021/07/02 00:56:12;;;;;;;4.23;3.20;;;14.40;99.90;;;;;;5035816;28;20407;-75
2021/07/02 00:58:38;;;;;;;2.73;2.50;;;14.40;99.90;;;;;;5034855;28;20474;-76
2021/07/02 01:01:04;;;;;;;2.80;2.60;;;14.40;99.90;;;;;;5035650;28;20411;-75
2021/07/02 01:03:30;;;;;;;4.47;2.57;;;14.30;99.90;;;;;;5039375;28;20292;-76
2021/07/02 01:05:56;;;;;;;4.27;3.87;;;14.40;99.90;;;;;;5055494;28;20490;-76
2021/07/02 01:08:23;;;;;;;3.47;3.17;;;14.30;99.90;;;;;;5054532;28;20433;-75
2021/07/02 01:10:49;;;;;;;2.67;2.47;;;14.30;99.90;;;;;;5055876;28;20202;-76
2021/07/02 01:13:14;;;;;;;2.90;2.40;;;14.30;99.90;;;;;;5055244;28;20406;-76
2021/07/02 01:15:40;;;;;;;2.27;2.07;;;14.30;99.90;;;;;;5053399;28;20422;-76
2021/07/02 01:18:08;;;;;;;4.43;3.27;;;14.30;99.90;;;;;;5054672;28;20409;-75
2021/07/02 01:20:33;;;;;;;3.47;3.17;;;14.30;99.90;;;;;;5054908;28;20192;-75
2021/07/02 01:22:59;;;;;;;6.43;3.33;;;14.30;99.90;;;;;;5055139;28;20388;-76
2021/07/02 01:25:29;;;;;;;3.83;2.50;;;14.20;99.90;;;;;;5054755;28;20176;-75
2021/07/02 01:27:55;;;;;;;2.60;2.37;;;14.20;99.90;;;;;;5054845;28;20195;-76
2021/07/02 01:30:21;;;;;;;4.07;2.97;;;14.20;99.90;;;;;;5050069;28;20918;-76
2021/07/02 01:32:46;;;;;;;3.77;2.83;;;14.20;99.90;;;;;;5035184;28;20175;-75
2021/07/02 01:35:12;;;;;;;3.23;2.20;;;14.20;99.90;;;;;;5052449;28;20206;-75
2021/07/02 01:37:38;;;;;;;7.60;2.50;;;14.20;99.90;;;;;;5054512;28;20187;-75
2021/07/02 01:40:04;;;;;;;4.07;2.63;;;14.20;99.90;;;;;;5054594;28;20788;-75
2021/07/02 01:42:30;;;;;;;3.57;3.27;;;14.20;99.90;;;;;;5054778;28;20504;-75
2021/07/02 01:44:56;;;;;;;3.33;2.73;;;14.20;99.90;;;;;;5051271;28;20569;-75
2021/07/02 01:47:22;;;;;;;3.47;2.87;;;14.20;99.90;;;;;;5034214;28;20181;-75
2021/07/02 01:49:48;;;;;;;3.27;2.50;;;14.20;99.90;;;;;;5034629;28;20552;-75
2021/07/02 01:52:14;;;;;;;3.30;3.00;;;14.20;99.90;;;;;;5034658;28;20389;-75
2021/07/02 01:54:40;;;;;;;4.10;2.97;;;14.20;99.90;;;;;;5034541;28;20498;-75
2021/07/02 01:57:16;;;;;;;3.40;3.10;;;14.10;99.90;;;;;;5034244;28;20832;-75
2021/07/02 01:59:42;;;;;;;3.83;2.60;;;14.10;99.90;;;;;;5037377;28;20483;-75
2021/07/02 02:02:07;;;;;;;3.87;3.00;;;14.20;99.90;;;;;;5054358;28;20421;-76
2021/07/02 02:04:33;;;;;;;3.80;3.07;;;14.10;99.90;;;;;;5054443;28;20223;-75
2021/07/02 02:06:59;;;;;;;7.00;3.33;;;14.10;99.90;;;;;;5054411;28;20237;-74
2021/07/02 02:09:24;;;;;;;2.50;2.30;;;14.20;99.90;;;;;;5053726;28;20246;-74
2021/07/02 02:11:50;;;;;;;4.70;3.23;;;14.10;99.90;;;;;;5054053;28;20729;-74
2021/07/02 02:14:15;;;;;;;3.17;2.30;;;14.10;99.90;;;;;;5052220;28;20175;-75
2021/07/02 02:16:41;;;;;;;5.40;3.20;;;14.10;99.90;;;;;;5034242;28;20242;-75
2021/07/02 02:19:07;;;;;;;4.17;2.93;;;14.00;99.90;;;;;;5033808;28;20610;-75
2021/07/02 02:21:33;;;;;;;3.80;2.77;;;14.00;99.90;;;;;;5033994;28;20473;-75
2021/07/02 02:23:58;;;;;;;2.40;2.20;;;14.00;99.90;;;;;;5046077;28;20181;-74
2021/07/02 02:26:24;;;;;;;4.53;3.10;;;13.90;99.90;;;;;;5053924;28;20301;-77
2021/07/02 02:28:50;;;;;;;4.10;3.40;;;13.90;99.90;;;;;;5053300;28;20196;-74
2021/07/02 02:31:15;;;;;;;3.97;2.57;;;13.80;99.90;;;;;;5053881;28;20410;-76
2021/07/02 02:33:41;;;;;;;4.67;3.27;;;13.90;99.90;;;;;;5053854;28;20200;-75
2021/07/02 02:36:07;;;;;;;3.80;3.20;;;13.80;99.90;;;;;;5053823;28;20176;-74
2021/07/02 02:38:33;;;;;;;4.20;2.77;;;13.80;99.90;;;;;;5042009;28;20196;-77
2021/07/02 02:40:59;;;;;;;4.73;2.50;;;13.80;99.90;;;;;;5033864;28;20402;-77
2021/07/02 02:43:24;;;;;;;3.90;3.30;;;13.70;99.90;;;;;;5033806;28;20793;-76
2021/07/02 02:45:50;;;;;;;4.57;3.47;;;13.70;99.90;;;;;;5033800;28;20176;-76
2021/07/02 02:48:16;;;;;;;3.53;3.20;;;13.60;99.90;;;;;;5032030;28;20197;-75
2021/07/02 02:50:41;;;;;;;3.13;2.70;;;13.60;99.90;;;;;;5033650;28;20654;-75
2021/07/02 02:53:07;;;;;;;4.53;2.93;;;13.60;99.90;;;;;;5042727;28;20190;-75
2021/07/02 02:55:33;;;;;;;4.83;2.50;;;13.50;99.90;;;;;;5053665;28;20619;-75
2021/07/02 02:57:58;;;;;;;4.50;2.67;;;13.50;99.90;;;;;;5051615;28;20195;-75
2021/07/02 03:00:24;;;;;;;3.90;3.53;;;13.40;99.90;;;;;;5053410;28;20684;-76
2021/07/02 03:02:50;;;;;;;2.90;2.70;;;13.40;99.90;;;;;;5052127;28;20694;-76
2021/07/02 03:05:15;;;;;;;3.83;3.47;;;13.30;99.90;;;;;;5052974;28;20711;-75
2021/07/02 03:07:42;;;;;;;4.37;3.23;;;13.30;99.90;;;;;;5044604;28;20204;-74
2021/07/02 03:10:08;;;;;;;4.13;3.28;;;13.30;99.90;;;;;;5033355;28;20196;-75
2021/07/02 03:12:34;;;;;;;5.00;3.03;;;13.30;99.90;;;;;;5033318;28;20567;-75
2021/07/02 03:14:59;;;;;;;5.93;3.23;;;13.20;99.90;;;;;;5033294;28;20406;-74
2021/07/02 03:17:25;;;;;;;4.90;3.30;;;13.20;99.90;;;;;;5051329;28;20182;-75
2021/07/02 03:19:51;;;;;;;4.73;2.90;;;13.20;99.90;;;;;;5052879;28;20265;-75
2021/07/02 03:22:17;;;;;;;5.70;4.07;;;13.20;99.90;;;;;;5053218;28;20165;-75
2021/07/02 03:24:43;;;;;;;3.23;2.93;;;13.10;99.90;;;;;;5053081;28;20202;-74
2021/07/02 03:27:08;;;;;;;4.63;4.20;;;13.10;99.90;;;;;;5052862;28;20415;-75
2021/07/02 03:29:35;;;;;;;6.30;3.00;;;13.10;99.90;;;;;;5053071;28;20931;-74
2021/07/02 03:32:00;;;;;;;4.00;3.03;;;13.00;99.90;;;;;;5035612;28;20191;-74
2021/07/02 03:34:26;;;;;;;6.30;3.93;;;13.00;99.90;;;;;;5032939;28;20176;-75
2021/07/02 03:36:51;;;;;;;3.60;2.83;;;13.00;99.90;;;;;;5033084;28;20171;-74
2021/07/02 03:39:17;;;;;;;4.00;3.23;;;13.00;99.90;;;;;;5040169;28;20211;-75
2021/07/02 03:41:43;;;;;;;3.43;3.13;;;13.00;99.90;;;;;;5053007;28;20710;-74
2021/07/02 03:44:09;;;;;;;6.93;2.90;;;13.10;99.90;;;;;;5051775;28;20179;-74
2021/07/02 03:46:34;;;;;;;5.53;2.87;;;13.00;99.90;;;;;;5052887;28;20168;-75
2021/07/02 03:49:01;;;;;;;5.40;3.73;;;13.10;99.90;;;;;;5052343;28;20432;-75
2021/07/02 03:51:27;;;;;;;11.13;3.93;;;13.10;99.90;;;;;;5052608;28;20166;-74
2021/07/02 03:53:52;;;;;;;3.37;3.07;;;13.10;99.90;;;;;;5046206;28;20397;-74
2021/07/02 03:56:18;;;;;;;5.30;3.57;;;13.10;99.90;;;;;;5032931;28;20264;-75
2021/07/02 03:58:44;;;;;;;6.50;4.00;;;13.20;99.90;;;;;;5032316;28;20208;-75
2021/07/02 04:01:09;;;;;;;5.80;4.00;;;13.30;99.90;;;;;;5032982;28;20197;-75
2021/07/02 04:03:36;;;;;;;4.03;3.63;;;13.30;99.90;;;;;;5048851;28;20870;-75
2021/07/02 04:06:02;;;;;;;5.80;4.22;;;13.40;99.90;;;;;;5052482;28;20167;-75
2021/07/02 04:08:27;;;;;;;8.25;4.38;;;13.40;99.90;;;;;;5052255;28;20178;-75
2021/07/02 04:10:53;;;;;;;5.17;3.40;;;13.40;99.90;;;;;;5052582;28;20174;-76
2021/07/02 04:13:18;;;;;;;5.00;3.77;;;13.40;99.90;;;;;;5052787;28;20631;-76
2021/07/02 04:15:44;;;;;;;5.30;3.10;;;13.40;99.90;;;;;;5052742;28;20175;-75
2021/07/02 04:18:10;;;;;;;4.55;4.07;;;13.50;99.90;;;;;;5051693;28;20182;-76
2021/07/02 04:20:39;;;;;;;7.63;3.93;;;13.60;99.90;;;;;;5036052;28;20218;-76
2021/07/02 04:23:05;;;;;;;5.63;3.87;;;13.70;99.90;;;;;;5036262;28;20172;-76
2021/07/02 04:25:31;;;;;;;7.00;3.03;;;13.70;99.90;;;;;;5036325;28;20403;-75
2021/07/02 04:27:57;;;;;;;6.07;3.97;;;13.80;99.90;;;;;;5035765;28;20404;-75
2021/07/02 04:30:23;;;;;;;4.13;3.37;;;13.90;99.90;;;;;;5035949;28;20442;-76
2021/07/02 04:32:48;;;;;;;5.47;4.23;;;14.00;99.90;;;;;;5035904;28;20181;-76
2021/07/02 04:35:14;;;;;;;4.23;3.30;;;14.10;99.90;;;;;;5036064;28;20179;-76
2021/07/02 04:37:40;;;;;;;3.80;3.20;;;14.20;99.90;;;;;;5035584;28;20251;-76
2021/07/02 04:40:08;;;;;;;7.10;4.50;;;14.30;99.90;;;;;;5035798;28;20208;-76
2021/07/02 04:42:34;;;;;;;4.73;4.23;;;14.40;99.90;;;;;;5035865;28;20416;-75
2021/07/02 04:45:00;;;;;;;3.27;2.90;;;14.50;99.90;;;;;;5035986;28;20399;-76
2021/07/02 04:47:28;;;;;;;5.23;3.83;;;14.50;99.90;;;;;;5048337;28;20989;-75
2021/07/02 04:49:54;;;;;;;5.10;4.07;;;14.60;99.90;;;;;;5055796;28;20197;-76
2021/07/02 04:52:19;;;;;;;4.83;2.50;;;14.70;99.90;;;;;;5055903;28;20967;-76
2021/07/02 04:54:45;;;;;;;3.87;3.53;;;14.80;99.90;;;;;;5055410;28;20672;-76
2021/07/02 04:57:10;;;;;;;5.13;3.73;;;14.90;99.90;;;;;;5055143;28;20191;-76
2021/07/02 04:59:38;;;;;;;2.80;2.60;;;15.00;99.90;;;;;;5055653;28;20296;-76
2021/07/02 05:02:06;;;;;;;3.43;3.13;;;15.10;99.90;;;;;;5054188;28;20169;-74
2021/07/02 05:04:32;;;;;;;4.30;2.83;;;15.20;99.90;;;;;;5055532;28;20402;-75
2021/07/02 05:06:58;;;;;;;5.33;3.70;;;15.30;99.90;;;;;;5055476;28;20403;-75
2021/07/02 05:09:24;;;;;;;3.50;3.20;;;15.40;99.90;;;;;;5043636;28;20453;-76
2021/07/02 05:11:50;;;;;;;3.60;3.30;;;15.50;99.90;;;;;;5035592;28;20174;-74
2021/07/02 05:14:16;;;;;;;3.37;3.07;;;15.70;99.90;;;;;;5035641;28;20412;-75
2021/07/02 05:16:41;;;;;;;3.00;2.70;;;15.80;99.90;;;;;;5035325;28;20213;-76
2021/07/02 05:19:08;;;;;;;3.00;2.50;;;16.00;99.90;;;;;;5034921;28;20209;-76
2021/07/02 05:21:34;;;;;;;8.27;3.70;;;16.10;99.90;;;;;;5035491;28;20166;-75
2021/07/02 05:24:00;;;;;;;4.00;2.80;;;16.30;99.90;;;;;;5035187;28;20426;-76
2021/07/02 05:26:26;;;;;;;4.33;3.40;;;16.40;99.90;;;;;;5035206;28;20392;-75
2021/07/02 05:28:52;;;;;;;2.63;2.43;;;16.50;99.90;;;;;;5034171;28;20205;-75
2021/07/02 05:31:18;;;;;;;3.73;2.43;;;16.50;99.90;;;;;;5035408;28;20388;-75
2021/07/02 05:33:44;;;;;;;3.97;2.90;;;16.60;99.90;;;;;;5054908;28;20181;-77
2021/07/02 05:36:10;;;;;;;5.03;4.07;;;16.60;99.90;;;;;;5054847;28;20338;-76
2021/07/02 05:38:36;;;;;;;6.17;3.93;;;16.60;99.90;;;;;;5049358;28;20990;-76
2021/07/02 05:41:02;;;;;;;4.17;2.87;;;16.60;99.90;;;;;;5034599;28;20627;-75
2021/07/02 05:43:28;;;;;;;3.53;3.10;;;16.60;99.90;;;;;;5034782;28;20418;-75
2021/07/02 05:45:54;;;;;;;4.40;3.53;;;16.70;99.90;;;;;;5034516;28;20413;-75
2021/07/02 05:48:21;;;;;;;7.40;2.73;;;16.90;99.90;;;;;;5034331;28;20402;-75
2021/07/02 05:50:47;;;;;;;4.33;3.10;;;17.00;99.90;;;;;;5034519;28;20529;-75
2021/07/02 05:53:14;;;;;;;4.50;3.47;;;17.00;99.90;;;;;;5037763;28;20424;-75
2021/07/02 05:55:40;;;;;;;4.03;3.13;;;17.10;99.90;;;;;;5054508;28;20402;-75
2021/07/02 05:58:05;;;;;;;3.27;2.97;;;17.00;99.90;;;;;;5052806;28;20438;-74
2021/07/02 06:00:31;;;;;;;4.43;3.27;;;17.00;99.90;;;;;;5052875;28;20216;-74
2021/07/02 06:02:57;;;;;;;2.80;2.50;;;17.10;99.90;;;;;;5039768;28;20238;-76
2021/07/02 06:05:23;;;;;;;2.97;2.67;;;17.10;99.90;;;;;;5033231;28;20177;-75
2021/07/02 06:07:53;;;;;;;3.53;3.27;;;17.30;99.90;;;;;;5033758;28;20179;-76
2021/07/02 06:10:21;;;;;;;3.87;2.80;;;17.40;99.90;;;;;;5034111;28;20433;-76
2021/07/02 06:12:48;;;;;;;2.93;2.67;;;17.70;99.90;;;;;;5034161;28;20923;-75
2021/07/02 06:15:14;;;;;;;4.07;3.50;;;17.90;99.90;;;;;;5038387;28;20425;-74
2021/07/02 06:17:41;;;;;;;3.13;2.33;;;18.10;99.90;;;;;;5046591;28;20488;-75
2021/07/02 06:20:08;;;;;;;4.10;3.30;;;18.20;99.90;;;;;;5049390;28;20964;-75
2021/07/02 06:22:35;;;;;;;3.40;2.47;;;18.20;99.90;;;;;;5051597;28;20492;-76
2021/07/02 06:25:02;;;;;;;4.60;3.30;;;18.30;99.90;;;;;;5052371;28;20416;-75
2021/07/02 06:27:28;;;;;;;3.63;2.97;;;18.50;99.90;;;;;;5052289;28;20487;-75
2021/07/02 06:29:53;;;;;;;3.60;3.30;;;18.70;99.90;;;;;;5050462;28;20422;-74
2021/07/02 06:32:19;;;;;;;7.97;4.90;;;19.10;99.90;;;;;;5052241;28;20394;-76
2021/07/02 06:34:44;;;;;;;5.03;3.83;;;19.40;99.90;;;;;;5053660;28;20642;-76
2021/07/02 06:37:10;;;;;;;9.47;5.00;;;19.60;99.90;;;;;;5051904;28;20181;-75
2021/07/02 06:39:36;;;;;;;4.63;3.70;;;19.80;99.90;;;;;;5052472;28;20201;-76
2021/07/02 06:42:02;;;;;;;3.90;3.43;;;19.90;99.90;;;;;;5051703;28;20273;-75
2021/07/02 06:44:27;;;;;;;3.63;3.10;;;20.10;99.90;;;;;;5044599;28;20647;-73
2021/07/02 06:46:53;;;;;;;4.13;3.70;;;20.30;99.90;;;;;;5053267;28;20420;-71
2021/07/02 06:49:19;;;;;;;3.70;3.33;;;20.40;99.90;;;;;;5033535;28;20205;-74
2021/07/02 06:51:44;;;;;;;3.07;2.80;;;20.50;99.90;;;;;;5037942;28;20190;-76
2021/07/02 06:54:10;;;;;;;3.13;2.63;;;20.50;99.90;;;;;;5052064;28;20668;-75
2021/07/02 06:56:36;;;;;;;2.87;2.60;;;20.70;99.90;;;;;;5049570;28;20423;-74
2021/07/02 06:59:01;;;;;;;4.03;3.03;;;21.00;99.90;;;;;;5039516;28;20206;-73
2021/07/02 07:01:29;;;;;;;4.50;4.03;;;21.20;99.90;;;;;;5046678;28;20525;-72
2021/07/02 07:03:55;;;;;;;5.37;3.47;;;21.30;99.90;;;;;;5040573;28;20438;-74
2021/07/02 07:06:20;;;;;;;3.00;2.80;;;21.30;99.90;;;;;;5034373;28;20671;-72
2021/07/02 07:08:46;;;;;;;4.00;3.70;;;21.30;99.90;;;;;;5043761;28;20206;-74
2021/07/02 07:11:12;;;;;;;4.00;3.60;;;21.50;99.90;;;;;;5039670;28;20205;-75
2021/07/02 07:13:39;;;;;;;4.40;3.30;;;21.70;99.90;;;;;;5050435;28;20205;-72
2021/07/02 07:16:05;;;;;;;3.60;2.90;;;21.80;99.90;;;;;;5051660;28;20186;-70
2021/07/02 07:18:31;;;;;;;7.10;2.63;;;22.00;99.90;;;;;;5052488;28;20403;-67
2021/07/02 07:20:57;;;;;;;3.10;2.83;;;22.30;99.70;;;;;;5049331;28;20181;-70
2021/07/02 07:23:23;;;;;;;3.17;2.80;;;22.60;99.20;;;;;;5045261;28;20170;-70
2021/07/02 07:25:49;;;;;;;3.90;3.23;;;22.90;99.20;;;;;;5052422;28;20474;-67
2021/07/02 07:28:15;;;;;;;2.60;2.40;;;23.40;98.70;;;;;;5037877;28;20178;-67
2021/07/02 07:30:40;;;;;;;3.63;3.23;;;23.70;96.80;;;;;;5036603;28;20861;-67
2021/07/02 07:33:06;;;;;;;5.73;3.17;;;24.10;96.10;;;;;;5032949;28;20391;-66
2021/07/02 07:35:37;;;;;;;3.70;3.40;;;24.50;95.30;;;;;;5038867;28;20214;-67
2021/07/02 07:38:03;;;;;;;3.33;3.03;;;24.90;94.20;;;;;;5046217;28;20703;-70
2021/07/02 07:40:30;;;;;;;2.80;2.60;;;25.00;93.50;;;;;;5035377;28;20525;-71
2021/07/02 07:42:57;;;;;;;3.23;2.93;;;25.30;93.30;;;;;;5043911;28;20412;-66
2021/07/02 07:45:23;;;;;;;3.27;2.50;;;25.50;92.00;;;;;;5051076;28;20424;-66
2021/07/02 07:47:50;;;;;;;3.50;3.20;;;26.00;91.90;;;;;;5050842;28;20412;-66
2021/07/02 07:50:21;;;;;;;3.20;3.00;;;27.20;90.90;;;;;;5046270;28;20954;-66
2021/07/02 07:53:05;;;;;;;5.10;2.80;;;28.30;87.20;;;;;;5052617;28;20901;-67
2021/07/02 07:55:31;;;;;;;3.53;3.10;;;29.40;83.10;;;;;;5047273;28;20436;-67
2021/07/02 07:57:57;;;;;;;3.30;3.10;;;30.60;80.40;;;;;;5045993;28;20523;-68
2021/07/02 08:00:23;;;;;;;3.20;3.00;;;31.60;78.20;;;;;;5040023;28;20206;-67
2021/07/02 08:02:50;;;;;;;3.23;3.03;;;32.00;67.70;;;;;;5037015;28;20431;-68
2021/07/02 08:05:16;;;;;;;4.90;3.30;;;31.60;65.20;;;;;;5036227;28;20412;-68
2021/07/02 08:07:43;;;;;;;3.13;2.83;;;30.60;64.70;;;;;;5036584;28;20830;-66
2021/07/02 08:10:12;;;;;;;4.40;3.50;;;30.40;68.50;;;;;;5036244;28;20236;-68
2021/07/02 08:12:38;;;;;;;3.70;3.10;;;30.90;67.30;;;;;;5040443;28;20458;-71
2021/07/02 08:15:07;;;;;;;6.20;4.17;;;30.80;64.30;;;;;;5056328;28;20412;-67
2021/07/02 08:17:34;;;;;;;4.40;2.93;;;30.20;66.00;;;;;;5054135;28;20438;-67
2021/07/02 08:20:00;;;;;;;3.50;2.80;;;29.40;66.90;;;;;;5053744;28;20503;-70
2021/07/02 08:22:27;;;;;;;3.33;3.03;;;28.50;68.80;;;;;;5038920;28;20969;-70
2021/07/02 08:24:53;;;;;;;2.93;2.73;;;28.30;72.50;;;;;;5026812;28;20290;-72
2021/07/02 08:27:20;;;;;;;3.00;2.80;;;28.90;72.10;;;;;;5047544;28;20477;-74
2021/07/02 08:29:46;;;;;;;3.83;3.53;;;29.80;69.70;;;;;;5049735;28;20480;-74
2021/07/02 08:32:12;;;;;;;4.00;3.60;;;30.70;66.30;;;;;;5049713;28;20454;-72
2021/07/02 08:34:38;;;;;;;3.33;3.07;;;31.50;60.50;;;;;;5052584;28;20424;-73
2021/07/02 08:37:04;;;;;;;3.07;2.80;;;31.70;59.10;;;;;;5041290;28;20255;-72
2021/07/02 08:39:29;;;;;;;3.20;3.00;;;32.10;58.70;;;;;;5053972;28;20224;-73
2021/07/02 08:41:55;;;;;;;4.17;3.87;;;32.40;57.40;;;;;;5050716;28;20632;-75
2021/07/02 08:44:21;;;;;;;3.60;3.30;;;32.80;57.20;;;;;;5052849;28;20261;-73
2021/07/02 08:46:49;;;;;;;3.83;3.50;;;33.40;58.00;;;;;;5043544;28;20291;-74
2021/07/02 08:49:16;;;;;;;3.47;3.17;;;33.80;58.00;;;;;;5047796;28;20196;-74
2021/07/02 08:51:43;;;;;;;3.07;2.87;;;34.40;55.70;;;;;;5048217;28;20424;-73
2021/07/02 08:54:14;;;;;;;3.03;2.83;;;34.80;54.90;;;;;;5048318;28;20431;-73
2021/07/02 08:56:55;;;;;;;3.57;3.27;;;35.10;54.30;;;;;;5043355;28;20463;-73
2021/07/02 08:59:28;;;;;;;3.50;3.30;;;34.90;53.20;;;;;;5044368;28;20957;-74
2021/07/02 09:01:55;;;;;;;3.20;3.00;;;34.80;51.90;;;;;;5053507;28;20430;-74
2021/07/02 09:04:26;;;;;;;3.23;3.03;;;34.80;52.30;;;;;;5054474;28;20412;-71
2021/07/02 09:07:10;;;;;;;2.97;2.77;;;34.70;50.70;;;;;;5044946;28;20433;-72
2021/07/02 09:09:48;;;;;;;4.10;3.80;;;34.80;51.00;;;;;;5053667;28;20444;-73
2021/07/02 09:12:15;;;;;;;3.37;3.17;;;34.80;50.20;;;;;;5051639;28;20732;-73
2021/07/02 09:14:57;;;;;;;4.07;3.77;;;34.60;50.80;;;;;;5045878;28;20420;-74
2021/07/02 09:17:24;;;;;;;3.47;3.17;;;33.90;51.80;;;;;;5045924;28;20417;-73
2021/07/02 09:20:10;;;;;;;4.13;3.83;;;32.70;53.10;;;;;;5054756;28;20462;-72
2021/07/02 09:22:48;;;;;;;4.90;3.67;;;31.20;55.00;;;;;;5050639;28;20622;-73
2021/07/02 09:25:36;;;;;;;3.87;3.57;;;29.80;56.80;;;;;;5045151;28;20489;-73
2021/07/02 09:28:11;;;;;;;3.50;3.23;;;28.70;58.60;;;;;;5044917;28;20458;-73
2021/07/02 09:30:45;;;;;;;3.20;3.00;;;27.60;60.90;;;;;;5051083;28;20459;-72
2021/07/02 09:33:18;;;;;;;3.10;2.80;;;27.20;63.00;;;;;;5046444;28;20472;-73
2021/07/02 09:35:49;;;;;;;3.40;2.90;;;27.80;63.20;;;;;;5054320;28;20543;-74
2021/07/02 09:38:18;;;;;;;4.10;3.70;;;28.80;64.60;;;;;;5038049;28;20420;-73
2021/07/02 09:40:45;;;;;;;3.70;3.40;;;29.60;60.70;;;;;;5050816;28;20456;-74
2021/07/02 09:43:19;;;;;;;3.43;3.13;;;30.20;58.80;;;;;;5049638;28;20939;-73
2021/07/02 09:45:46;;;;;;;4.27;3.87;;;30.30;59.20;;;;;;5038321;28;20421;-73
2021/07/02 09:48:14;;;;;;;5.43;3.90;;;30.70;58.90;;;;;;5036871;28;20411;-74
2021/07/02 09:50:53;;;;;;;3.10;2.90;;;31.50;59.00;;;;;;5046077;28;20431;-74
2021/07/02 09:53:24;;;;;;;4.53;3.40;;;32.40;57.40;;;;;;5037769;28;20423;-78
2021/07/02 09:55:53;;;;;;;3.60;3.30;;;32.70;54.70;;;;;;5046022;28;20436;-72
2021/07/02 09:58:28;;;;;;;4.37;3.60;;;32.90;55.60;;;;;;5040814;28;20803;-74
2021/07/02 10:01:01;;;;;;;3.80;3.50;;;32.90;54.10;;;;;;5045131;28;20431;-72
2021/07/02 10:03:32;;;;;;;4.10;3.80;;;32.90;54.60;;;;;;5042991;28;20442;-73
2021/07/02 10:06:01;;;;;;;3.60;3.33;;;33.50;53.40;;;;;;5045492;28;20407;-73
2021/07/02 10:08:34;;;;;;;5.73;4.27;;;34.20;53.60;;;;;;5049252;28;20427;-74
2021/07/02 10:11:01;;;;;;;3.63;3.43;;;34.50;51.00;;;;;;5049890;28;20444;-72
2021/07/02 10:13:30;;;;;;;3.80;3.50;;;34.20;51.70;;;;;;5046384;28;20784;-73
2021/07/02 10:15:58;;;;;;;3.90;3.60;;;34.10;50.90;;;;;;5051372;28;20490;-73
2021/07/02 10:18:27;;;;;;;3.97;3.67;;;33.90;50.50;;;;;;5053335;28;20407;-74
2021/07/02 10:20:55;;;;;;;4.00;3.60;;;33.20;51.00;;;;;;5053211;28;20471;-74
2021/07/02 10:23:25;;;;;;;3.93;3.63;;;33.30;52.90;;;;;;5048308;28;20409;-72
2021/07/02 10:25:53;;;;;;;4.10;3.80;;;33.50;52.00;;;;;;5034776;28;20393;-73
2021/07/02 10:28:19;;;;;;;4.30;3.90;;;33.20;52.80;;;;;;5040551;28;20745;-69
2021/07/02 10:30:45;;;;;;;3.63;3.33;;;33.00;51.90;;;;;;5047619;28;20515;-68
2021/07/02 10:33:12;;;;;;;4.00;3.40;;;32.90;52.90;;;;;;5052300;28;20671;-70
2021/07/02 10:35:43;;;;;;;3.40;3.10;;;32.70;52.90;;;;;;5033525;28;20380;-71
2021/07/02 10:38:10;;;;;;;3.33;3.03;;;32.50;54.50;;;;;;5033690;28;20890;-73
2021/07/02 10:40:45;;;;;;;3.47;3.17;;;32.70;54.10;;;;;;5046767;28;20777;-72
2021/07/02 10:43:25;;;;;;;3.40;3.10;;;32.50;52.60;;;;;;5052554;28;20419;-73
2021/07/02 10:46:12;;;;;;;3.67;3.47;;;32.10;53.60;;;;;;5043022;28;20547;-77
2021/07/02 10:49:02;;;;;;;4.20;3.80;;;31.80;54.10;;;;;;5033608;28;20424;-74
2021/07/02 10:51:38;;;;;;;4.80;3.83;;;31.90;52.80;;;;;;5047191;28;20394;-76
2021/07/02 10:54:13;;;;;;;3.00;2.70;;;31.70;51.70;;;;;;5043401;28;20416;-77
2021/07/02 10:57:01;;;;;;;3.83;3.43;;;31.70;51.40;;;;;;5050502;28;20462;-74
2021/07/02 10:59:36;;;;;;;3.00;2.80;;;31.40;53.20;;;;;;5040116;28;20434;-73
2021/07/02 11:04:40;;;;;;;3.93;3.63;;;31.10;52.80;;;;;;5038467;28;20412;-73
2021/07/02 11:07:11;;;;;;;3.33;2.90;;;30.80;54.20;;;;;;5041145;28;20415;-72
2021/07/02 11:09:49;;;;;;;3.50;3.20;;;30.60;53.70;;;;;;5039796;28;20426;-66
2021/07/02 11:12:16;;;;;;;3.30;3.00;;;30.30;55.70;;;;;;5042555;28;20434;-67
2021/07/02 11:14:54;;;;;;;3.43;3.13;;;29.90;55.00;;;;;;5040562;28;20456;-66
2021/07/02 11:17:27;;;;;;;3.27;2.97;;;29.30;56.10;;;;;;5041516;28;20422;-65
2021/07/02 11:20:11;;;;;;;3.67;3.37;;;28.60;56.50;;;;;;5042702;28;20522;-66
2021/07/02 11:22:39;;;;;;;3.37;3.00;;;27.80;57.90;;;;;;5041714;28;20383;-64
2021/07/02 11:25:13;;;;;;;3.50;3.20;;;27.00;58.00;;;;;;5042187;28;20779;-67
2021/07/02 11:27:59;;;;;;;3.27;2.50;;;26.30;59.60;;;;;;5042924;28;20430;-66
2021/07/02 11:30:38;;;;;;;4.00;2.93;;;25.90;60.40;;;;;;5045076;28;20418;-67
2021/07/02 11:33:10;;;;;;;3.10;2.80;;;25.50;63.30;;;;;;5044874;28;20426;-67
2021/07/02 11:35:39;;;;;;;4.37;3.70;;;25.30;64.40;;;;;;5041668;28;20405;-67
2021/07/02 11:38:16;;;;;;;4.90;3.37;;;25.10;64.60;;;;;;5046947;28;20757;-66
2021/07/02 11:40:47;;;;;;;3.17;2.87;;;25.00;65.50;;;;;;5040384;28;20489;-70
2021/07/02 11:43:14;;;;;;;3.53;2.90;;;25.00;66.70;;;;;;5043657;28;20400;-66
2021/07/02 11:45:41;;;;;;;3.37;3.00;;;25.00;63.10;;;;;;5048744;28;20430;-68
2021/07/02 11:48:08;;;;;;;4.60;3.07;;;24.90;67.50;;;;;;5044658;28;20401;-69
2021/07/02 11:50:43;;;;;;;4.57;2.70;;;24.90;66.60;;;;;;5037974;28;20523;-66
2021/07/02 11:53:31;;;;;;;2.73;2.53;;;24.80;66.20;;;;;;5045436;28;21059;-64
2021/07/02 11:56:05;;;;;;;3.43;3.07;;;24.50;64.00;;;;;;5042205;28;20411;-65
2021/07/02 11:58:32;;;;;;;7.30;4.33;;;24.40;68.70;;;;;;5037890;28;20772;-66
2021/07/02 12:01:06;;;;;;;4.17;3.03;;;24.30;66.70;;;;;;5044848;28;20427;-65
2021/07/02 12:03:31;;;;;;;4.13;3.67;;;24.30;69.80;;;;;;5045681;28;20407;-66
2021/07/02 12:05:59;;;;;;;3.53;3.10;;;24.30;70.10;;;;;;5046074;28;20413;-65
2021/07/02 12:08:28;;;;;;;4.07;3.60;;;24.20;66.90;;;;;;5045110;28;20170;-66
2021/07/02 12:11:05;;;;;;;3.50;3.30;;;24.10;66.30;;;;;;5042974;28;20408;-65
2021/07/02 12:13:32;;;;;;;3.50;3.20;;;23.90;64.50;;;;;;5044421;28;20418;-66
2021/07/02 12:16:03;;;;;;;4.10;3.10;;;23.80;67.80;;;;;;5045859;28;20417;-66
2021/07/02 12:18:29;;;;;;;2.90;2.70;;;23.90;67.50;;;;;;5054216;28;20416;-67
2021/07/02 12:21:09;;;;;;;2.87;2.67;;;24.00;68.80;;;;;;5038335;28;20539;-67
2021/07/02 12:23:37;;;;;;;3.60;3.30;;;24.20;67.50;;;;;;5036017;28;20547;-66
2021/07/02 12:26:20;;;;;;;2.87;2.00;;;24.40;64.90;;;;;;5045966;28;20413;-70
2021/07/02 12:29:10;;;;;;;2.83;2.57;;;24.40;67.70;;;;;;5043633;28;20443;-72
2021/07/02 12:31:49;;;;;;;3.20;2.60;;;24.20;65.80;;;;;;5052025;28;20439;-70
2021/07/02 12:34:35;;;;;;;3.00;2.70;;;24.00;67.30;;;;;;5051641;28;20409;-72
2021/07/02 12:37:08;;;;;;;3.83;3.50;;;23.80;63.80;;;;;;5044531;28;20402;-71
2021/07/02 12:39:41;;;;;;;3.57;2.63;;;23.80;68.90;;;;;;5043516;28;20550;-70
2021/07/02 12:42:17;;;;;;;3.40;3.10;;;23.80;65.80;;;;;;5044656;28;20419;-70
2021/07/02 12:44:51;;;;;;;3.73;2.70;;;24.00;68.10;;;;;;5050762;28;20873;-71
2021/07/02 12:47:18;;;;;;;3.43;3.13;;;24.10;65.80;;;;;;5046312;28;20408;-70
2021/07/02 12:49:46;;;;;;;3.37;3.07;;;24.30;67.50;;;;;;5042698;28;20514;-70
2021/07/02 12:55:01;;;;;;;4.90;3.43;;;24.40;65.80;;;;;;5044695;28;20450;-70
2021/07/02 12:57:31;;;;;;;3.37;3.07;;;24.40;67.60;;;;;;5045319;28;20518;-67
2021/07/02 13:00:06;;;;;;;3.20;2.90;;;24.50;69.80;;;;;;5037044;28;20458;-70